Time;durP1;ratioP1;P1;durP2;ratioP2;P2;SDS_P1;SDS_P2;PMS_P1;PMS_P2;Temp;Humidity;BMP_temperature;BMP_pressure;BME280_temperature;BME280_humidity;BME280_pressure;Samples;Min_cycle;Max_cycle;Signal;HPM_P1;HPM_P2
2022/01/03 00:00:35;;;;;;;4.68;2.03;;;;;;;;;;5011734;28;20057;-63
2022/01/03 00:03:07;;;;;;;5.60;2.10;;;;;;;;;;5014281;28;20057;-63
2022/01/03 00:05:34;;;;;;;5.25;2.67;;;;;;;;;;5015256;28;20065;-63
2022/01/03 00:08:01;;;;;;;6.00;2.00;;;;;;;;;;5015171;28;20388;-64
2022/01/03 00:10:28;;;;;;;4.78;2.17;;;;;;;;;;5015083;28;20050;-64
2022/01/03 00:12:55;;;;;;;5.20;2.08;;;;;;;;;;5015164;28;20438;-64
2022/01/03 00:15:23;;;;;;;4.60;1.88;;;;;;;;;;5015036;28;20140;-63
2022/01/03 00:17:53;;;;;;;4.35;1.80;;;;;;;;;;5014843;28;20054;-63
2022/01/03 00:20:22;;;;;;;5.55;2.10;;;;;;;;;;5015164;28;20116;-63
2022/01/03 00:22:54;;;;;;;5.78;2.30;;;;;;;;;;5014963;28;20100;-63
2022/01/03 00:25:23;;;;;;;7.05;2.30;;;;;;;;;;5015045;28;20049;-64
2022/01/03 00:27:57;;;;;;;5.43;2.03;;;;;;;;;;5014504;28;20054;-63
2022/01/03 00:30:25;;;;;;;5.63;2.10;;;;;;;;;;5015155;28;20577;-63
2022/01/03 00:32:53;;;;;;;5.97;2.35;;;;;;;;;;5014582;28;20065;-63
2022/01/03 00:35:22;;;;;;;3.97;2.08;;;;;;;;;;5014806;28;20491;-63
2022/01/03 00:37:50;;;;;;;5.65;2.20;;;;;;;;;;5014801;28;20053;-62
2022/01/03 00:40:19;;;;;;;4.40;2.10;;;;;;;;;;5014695;28;20045;-63
2022/01/03 00:42:46;;;;;;;4.95;2.00;;;;;;;;;;5014243;28;20108;-63
2022/01/03 00:45:13;;;;;;;4.88;2.15;;;;;;;;;;5014511;28;20431;-63
2022/01/03 00:47:40;;;;;;;4.88;2.15;;;;;;;;;;5014234;28;20495;-61
2022/01/03 00:50:10;;;;;;;4.90;2.40;;;;;;;;;;5014535;28;20053;-63
2022/01/03 00:52:39;;;;;;;6.00;2.60;;;;;;;;;;5014116;28;20112;-63
2022/01/03 00:55:07;;;;;;;6.25;2.65;;;;;;;;;;5014918;28;20055;-63
2022/01/03 00:57:52;;;;;;;5.25;1.88;;;;;;;;;;5013901;28;20058;-64
2022/01/03 01:00:21;;;;;;;3.90;1.88;;;;;;;;;;5014111;28;20054;-64
2022/01/03 01:02:52;;;;;;;5.85;2.20;;;;;;;;;;5013963;28;20061;-64
2022/01/03 01:05:21;;;;;;;4.28;1.77;;;;;;;;;;5014150;28;20135;-63
2022/01/03 01:07:55;;;;;;;5.78;2.25;;;;;;;;;;5013805;28;20046;-64
2022/01/03 01:10:23;;;;;;;3.63;1.90;;;;;;;;;;5014309;28;20062;-64
2022/01/03 01:12:50;;;;;;;3.88;2.03;;;;;;;;;;5013634;28;20054;-63
2022/01/03 01:15:17;;;;;;;4.88;2.13;;;;;;;;;;5013237;28;20058;-64
2022/01/03 01:17:45;;;;;;;4.55;2.42;;;;;;;;;;5013632;28;20077;-64
2022/01/03 01:20:15;;;;;;;4.85;2.05;;;;;;;;;;5014544;28;20088;-63
2022/01/03 01:22:42;;;;;;;4.13;1.90;;;;;;;;;;5014090;28;20046;-64
2022/01/03 01:27:56;;;;;;;5.90;2.20;;;;;;;;;;5010696;28;20046;-63
2022/01/03 01:30:24;;;;;;;4.68;1.90;;;;;;;;;;5013901;28;20452;-63
2022/01/03 01:32:55;;;;;;;4.93;2.35;;;;;;;;;;5013360;28;20525;-63
2022/01/03 01:35:25;;;;;;;4.25;1.80;;;;;;;;;;5013680;28;20502;-63
2022/01/03 01:37:55;;;;;;;3.20;1.48;;;;;;;;;;5013286;28;20045;-64
2022/01/03 01:40:24;;;;;;;7.22;2.70;;;;;;;;;;5013580;28;20056;-64
2022/01/03 01:42:51;;;;;;;6.00;2.00;;;;;;;;;;5013236;28;20054;-63
2022/01/03 01:45:20;;;;;;;3.33;1.58;;;;;;;;;;5013295;28;20503;-63
2022/01/03 01:47:49;;;;;;;3.40;1.73;;;;;;;;;;5013040;28;20116;-63
2022/01/03 01:50:16;;;;;;;5.30;2.83;;;;;;;;;;5013428;28;20053;-63
2022/01/03 01:52:45;;;;;;;4.13;1.73;;;;;;;;;;5013286;28;20045;-63
2022/01/03 01:55:14;;;;;;;6.00;1.70;;;;;;;;;;5013222;28;20137;-63
2022/01/03 01:57:54;;;;;;;4.22;1.67;;;;;;;;;;5012816;28;20046;-64
2022/01/03 02:00:22;;;;;;;3.97;1.50;;;;;;;;;;5013017;28;20053;-66
2022/01/03 02:03:01;;;;;;;3.63;1.40;;;;;;;;;;5013103;28;20145;-66
2022/01/03 02:05:31;;;;;;;5.15;1.65;;;;;;;;;;5013067;28;20049;-66
2022/01/03 02:08:11;;;;;;;5.47;1.83;;;;;;;;;;5012735;28;20050;-66
2022/01/03 02:10:40;;;;;;;4.13;1.48;;;;;;;;;;5012916;28;20056;-66
2022/01/03 02:13:10;;;;;;;5.40;1.97;;;;;;;;;;5012798;28;20077;-65
2022/01/03 02:15:38;;;;;;;7.18;1.70;;;;;;;;;;5012833;28;20099;-65
2022/01/03 02:18:06;;;;;;;5.63;2.55;;;;;;;;;;5012784;28;20107;-66
2022/01/03 02:20:34;;;;;;;5.25;1.40;;;;;;;;;;5012668;28;20132;-66
2022/01/03 02:23:02;;;;;;;3.92;1.48;;;;;;;;;;5012549;28;20054;-66
2022/01/03 02:25:29;;;;;;;4.65;1.73;;;;;;;;;;5012704;28;20543;-65
2022/01/03 02:27:56;;;;;;;5.20;1.45;;;;;;;;;;5012532;28;20061;-65
2022/01/03 02:30:25;;;;;;;4.78;1.67;;;;;;;;;;5012729;28;20058;-65
2022/01/03 02:32:53;;;;;;;3.85;1.50;;;;;;;;;;5012608;28;20407;-66
2022/01/03 02:35:20;;;;;;;3.13;1.13;;;;;;;;;;5012458;28;20050;-65
2022/01/03 02:37:50;;;;;;;4.55;1.40;;;;;;;;;;5012366;28;20050;-65
2022/01/03 02:40:19;;;;;;;3.85;1.33;;;;;;;;;;5012453;28;20050;-65
2022/01/03 02:42:47;;;;;;;2.70;1.13;;;;;;;;;;5012289;28;20058;-65
2022/01/03 02:45:16;;;;;;;3.83;1.27;;;;;;;;;;5012334;28;20050;-65
2022/01/03 02:47:45;;;;;;;3.20;1.08;;;;;;;;;;5012029;28;20054;-66
2022/01/03 02:50:14;;;;;;;4.10;1.40;;;;;;;;;;5012172;28;20099;-66
2022/01/03 02:52:41;;;;;;;4.13;1.25;;;;;;;;;;5012301;28;20045;-66
2022/01/03 02:55:10;;;;;;;4.70;1.50;;;;;;;;;;5012158;28;20050;-66
2022/01/03 02:57:39;;;;;;;2.95;1.27;;;;;;;;;;5012171;28;20112;-65
2022/01/03 03:00:10;;;;;;;3.58;1.45;;;;;;;;;;5012226;28;20061;-65
2022/01/03 03:02:37;;;;;;;4.40;1.33;;;;;;;;;;5012166;28;20530;-65
2022/01/03 03:05:06;;;;;;;4.55;1.30;;;;;;;;;;5012128;28;20061;-65
2022/01/03 03:07:34;;;;;;;5.40;1.50;;;;;;;;;;5012038;28;20056;-65
2022/01/03 03:10:02;;;;;;;5.03;1.45;;;;;;;;;;5012065;28;20108;-66
2022/01/03 03:12:30;;;;;;;3.92;1.45;;;;;;;;;;5012254;28;20049;-66
2022/01/03 03:14:57;;;;;;;4.50;1.13;;;;;;;;;;5011941;28;20442;-66
2022/01/03 03:17:24;;;;;;;2.90;1.40;;;;;;;;;;5011934;28;20046;-66
2022/01/03 03:19:55;;;;;;;6.80;1.70;;;;;;;;;;5012003;28;20050;-66
2022/01/03 03:22:22;;;;;;;3.28;1.48;;;;;;;;;;5012097;28;20128;-66
2022/01/03 03:24:49;;;;;;;4.22;1.30;;;;;;;;;;5011888;28;20065;-66
2022/01/03 03:27:16;;;;;;;5.38;1.40;;;;;;;;;;5011822;28;20062;-66
2022/01/03 03:29:47;;;;;;;3.85;1.35;;;;;;;;;;5011834;28;20061;-65
2022/01/03 03:32:14;;;;;;;3.22;1.20;;;;;;;;;;5011957;28;20046;-65
2022/01/03 03:34:41;;;;;;;2.90;1.50;;;;;;;;;;5011874;28;20045;-65
2022/01/03 03:37:09;;;;;;;4.30;1.25;;;;;;;;;;5012947;28;20108;-66
2022/01/03 03:39:36;;;;;;;3.65;1.20;;;;;;;;;;5015562;28;20057;-65
2022/01/03 03:42:04;;;;;;;5.53;1.58;;;;;;;;;;5015600;28;20061;-65
2022/01/03 03:44:31;;;;;;;3.00;1.23;;;;;;;;;;5015784;28;20550;-65
2022/01/03 03:47:00;;;;;;;3.75;1.17;;;;;;;;;;5015351;28;20491;-66
2022/01/03 03:49:26;;;;;;;5.28;1.35;;;;;;;;;;5015576;28;20053;-66
2022/01/03 03:51:54;;;;;;;3.92;1.10;;;;;;;;;;5015472;28;20057;-65
2022/01/03 03:54:20;;;;;;;5.13;1.50;;;;;;;;;;5015320;28;20056;-66
2022/01/03 03:56:47;;;;;;;4.63;1.23;;;;;;;;;;5015634;28;20061;-65
2022/01/03 03:59:14;;;;;;;6.45;1.65;;;;;;;;;;5015589;28;20053;-65
2022/01/03 04:01:41;;;;;;;4.95;1.38;;;;;;;;;;5015303;28;20473;-66
2022/01/03 04:04:09;;;;;;;3.83;1.42;;;;;;;;;;5015338;28;20053;-66
2022/01/03 04:06:37;;;;;;;3.75;1.13;;;;;;;;;;5015138;28;20205;-66
2022/01/03 04:09:04;;;;;;;6.32;2.38;;;;;;;;;;5015039;28;20080;-66
2022/01/03 04:11:31;;;;;;;4.80;1.10;;;;;;;;;;5015137;28;20061;-65
2022/01/03 04:13:58;;;;;;;2.70;1.20;;;;;;;;;;5014971;28;20053;-65
2022/01/03 04:16:24;;;;;;;2.90;1.23;;;;;;;;;;5014911;28;20057;-65
2022/01/03 04:18:52;;;;;;;3.67;1.30;;;;;;;;;;5015227;28;20054;-66
2022/01/03 04:21:20;;;;;;;4.25;1.60;;;;;;;;;;5014994;28;20061;-66
2022/01/03 04:23:47;;;;;;;4.05;1.10;;;;;;;;;;5014753;28;20061;-66
2022/01/03 04:26:14;;;;;;;4.28;1.30;;;;;;;;;;5014859;28;20500;-66
2022/01/03 04:28:41;;;;;;;4.15;1.40;;;;;;;;;;5014750;28;20546;-65
2022/01/03 04:31:08;;;;;;;6.22;1.40;;;;;;;;;;5014756;28;20050;-65
2022/01/03 04:33:35;;;;;;;4.68;1.10;;;;;;;;;;5014638;28;20050;-65
2022/01/03 04:36:02;;;;;;;5.10;1.50;;;;;;;;;;5014543;28;20084;-65
2022/01/03 04:38:32;;;;;;;3.25;2.05;;;;;;;;;;5014383;28;20050;-65
2022/01/03 04:40:59;;;;;;;4.55;1.20;;;;;;;;;;5014539;28;20057;-65
2022/01/03 04:43:26;;;;;;;5.10;1.25;;;;;;;;;;5024568;23;20038;-59
2022/01/03 04:45:54;;;;;;;3.20;1.25;;;;;;;;;;5015009;28;20493;-59
2022/01/03 04:48:22;;;;;;;4.30;1.23;;;;;;;;;;5013450;28;20080;-57
2022/01/03 04:50:48;;;;;;;4.40;1.48;;;;;;;;;;5014617;28;20042;-58
2022/01/03 04:53:15;;;;;;;5.63;1.20;;;;;;;;;;5014390;28;20065;-58
2022/01/03 04:55:44;;;;;;;4.97;1.20;;;;;;;;;;5014431;28;20074;-57
2022/01/03 04:58:11;;;;;;;4.90;1.45;;;;;;;;;;5014276;28;20062;-54
2022/01/03 05:00:38;;;;;;;4.05;1.27;;;;;;;;;;5014391;28;20050;-58
2022/01/03 05:03:05;;;;;;;5.25;1.50;;;;;;;;;;5014134;28;20052;-58
2022/01/03 05:05:32;;;;;;;5.15;1.38;;;;;;;;;;5014455;28;20080;-58
2022/01/03 05:07:59;;;;;;;3.95;1.45;;;;;;;;;;5014225;28;20054;-58
2022/01/03 05:10:25;;;;;;;4.70;1.20;;;;;;;;;;5014315;28;20356;-58
2022/01/03 05:12:54;;;;;;;3.72;1.40;;;;;;;;;;5014016;28;20049;-58
2022/01/03 05:15:21;;;;;;;3.78;1.27;;;;;;;;;;5014140;28;20053;-56
2022/01/03 05:17:47;;;;;;;4.65;1.27;;;;;;;;;;5013921;28;20054;-57
2022/01/03 05:20:14;;;;;;;3.13;1.95;;;;;;;;;;5014019;28;20065;-59
2022/01/03 05:22:41;;;;;;;6.18;1.10;;;;;;;;;;5013760;28;20081;-55
2022/01/03 05:25:09;;;;;;;5.60;1.20;;;;;;;;;;5013913;28;20079;-57
2022/01/03 05:27:37;;;;;;;4.10;1.30;;;;;;;;;;5013797;28;20582;-58
2022/01/03 05:30:07;;;;;;;4.80;1.20;;;;;;;;;;5013858;28;20140;-59
2022/01/03 05:32:34;;;;;;;4.70;1.83;;;;;;;;;;5013689;28;20053;-58
2022/01/03 05:35:01;;;;;;;4.10;1.50;;;;;;;;;;5013663;28;20050;-59
2022/01/03 05:37:28;;;;;;;4.53;1.17;;;;;;;;;;5013478;28;20061;-59
2022/01/03 05:39:55;;;;;;;4.47;1.13;;;;;;;;;;5013897;28;20407;-59
2022/01/03 05:42:22;;;;;;;4.80;1.60;;;;;;;;;;5013321;28;20045;-59
2022/01/03 05:44:49;;;;;;;5.70;1.60;;;;;;;;;;5013601;28;20062;-57
2022/01/03 05:47:17;;;;;;;3.63;1.00;;;;;;;;;;5013340;28;20050;-59
2022/01/03 05:49:44;;;;;;;3.08;1.00;;;;;;;;;;5013464;28;20046;-58
2022/01/03 05:52:11;;;;;;;4.97;1.40;;;;;;;;;;5013262;28;20054;-59
2022/01/03 05:54:38;;;;;;;2.83;1.20;;;;;;;;;;5013274;28;20061;-58
2022/01/03 05:57:05;;;;;;;5.80;1.40;;;;;;;;;;5013357;28;20050;-59
2022/01/03 05:59:32;;;;;;;5.43;1.00;;;;;;;;;;5013104;28;20049;-59
2022/01/03 06:01:59;;;;;;;5.80;1.20;;;;;;;;;;5013178;28;20053;-58
2022/01/03 06:04:40;;;;;;;4.15;1.77;;;;;;;;;;5013102;28;20068;-57
2022/01/03 06:07:08;;;;;;;4.20;1.90;;;;;;;;;;5013441;28;20390;-57
2022/01/03 06:09:35;;;;;;;5.32;1.20;;;;;;;;;;5012949;28;20050;-59
2022/01/03 06:12:03;;;;;;;4.85;1.67;;;;;;;;;;5012970;28;20050;-55
2022/01/03 06:14:30;;;;;;;4.00;1.20;;;;;;;;;;5012978;28;20046;-55
2022/01/03 06:16:57;;;;;;;3.42;1.10;;;;;;;;;;5012998;28;20058;-56
2022/01/03 06:19:24;;;;;;;3.63;1.10;;;;;;;;;;5012866;28;20058;-58
2022/01/03 06:21:52;;;;;;;5.50;1.20;;;;;;;;;;5012775;28;20045;-59
2022/01/03 06:24:20;;;;;;;5.88;1.40;;;;;;;;;;5012891;28;20068;-58
2022/01/03 06:26:47;;;;;;;3.92;1.40;;;;;;;;;;5012712;28;20515;-58
2022/01/03 06:29:15;;;;;;;3.40;1.63;;;;;;;;;;5012615;28;20396;-58
2022/01/03 06:31:43;;;;;;;4.30;1.40;;;;;;;;;;5012613;28;20050;-59
2022/01/03 06:34:10;;;;;;;4.68;1.30;;;;;;;;;;5012430;28;20050;-57
2022/01/03 06:36:37;;;;;;;6.13;1.85;;;;;;;;;;5012822;28;20058;-58
2022/01/03 06:39:07;;;;;;;3.05;1.20;;;;;;;;;;5012479;28;20061;-59
2022/01/03 06:41:34;;;;;;;6.05;1.65;;;;;;;;;;5012722;28;20052;-58
2022/01/03 06:44:01;;;;;;;3.40;1.00;;;;;;;;;;5012184;28;20046;-58
2022/01/03 06:46:28;;;;;;;4.40;1.02;;;;;;;;;;5012416;28;20077;-58
2022/01/03 06:48:55;;;;;;;3.33;1.17;;;;;;;;;;5012470;28;20050;-58
2022/01/03 06:51:21;;;;;;;4.35;1.17;;;;;;;;;;5012385;28;20041;-59
2022/01/03 06:53:48;;;;;;;4.70;1.25;;;;;;;;;;5012477;28;20049;-57
2022/01/03 06:56:17;;;;;;;4.68;1.77;;;;;;;;;;5012436;28;20410;-59
2022/01/03 06:58:46;;;;;;;3.38;1.15;;;;;;;;;;5012376;28;20436;-57
2022/01/03 07:01:13;;;;;;;4.60;1.58;;;;;;;;;;5012852;28;20506;-59
2022/01/03 07:03:39;;;;;;;6.57;1.17;;;;;;;;;;5012357;28;20053;-58
2022/01/03 07:06:06;;;;;;;4.70;1.33;;;;;;;;;;5012566;28;20505;-59
2022/01/03 07:08:33;;;;;;;4.70;1.00;;;;;;;;;;5012267;28;20054;-58
2022/01/03 07:11:00;;;;;;;7.00;1.65;;;;;;;;;;5012201;28;20045;-59
2022/01/03 07:13:31;;;;;;;6.57;1.60;;;;;;;;;;5015599;28;20049;-59
2022/01/03 07:18:57;;;;;;;4.95;1.33;;;;;;;;;;5016447;28;20056;-57
2022/01/03 07:21:24;;;;;;;5.60;1.20;;;;;;;;;;5016177;28;20511;-59
2022/01/03 07:23:51;;;;;;;3.50;1.08;;;;;;;;;;5016283;28;20042;-60
2022/01/03 07:26:18;;;;;;;4.85;1.42;;;;;;;;;;5016151;28;20057;-59
2022/01/03 07:28:46;;;;;;;4.78;1.35;;;;;;;;;;5016121;28;20388;-59
2022/01/03 07:31:13;;;;;;;3.20;0.93;;;;;;;;;;5016008;28;20054;-60
2022/01/03 07:33:40;;;;;;;4.10;1.55;;;;;;;;;;5016090;28;20061;-59
2022/01/03 07:36:08;;;;;;;5.95;1.40;;;;;;;;;;5016059;28;20484;-60
2022/01/03 07:38:35;;;;;;;8.52;1.92;;;;;;;;;;5016493;28;20050;-60
2022/01/03 07:41:03;;;;;;;6.22;1.23;;;;;;;;;;5015901;28;20050;-59
2022/01/03 07:43:29;;;;;;;5.28;1.20;;;;;;;;;;5015590;28;20103;-60
2022/01/03 07:45:58;;;;;;;5.47;1.67;;;;;;;;;;5015831;28;20053;-59
2022/01/03 07:48:25;;;;;;;5.85;1.38;;;;;;;;;;5015578;28;20054;-60
2022/01/03 07:50:52;;;;;;;9.30;1.38;;;;;;;;;;5015549;28;20046;-56
2022/01/03 07:53:18;;;;;;;8.15;1.58;;;;;;;;;;5015472;28;20050;-55
2022/01/03 07:55:45;;;;;;;4.15;1.00;;;;;;;;;;5015471;28;20057;-55
2022/01/03 07:58:15;;;;;;;5.60;1.30;;;;;;;;;;5015756;28;20103;-59
2022/01/03 08:00:42;;;;;;;7.57;1.58;;;;;;;;;;5015225;28;20054;-57
2022/01/03 08:03:10;;;;;;;3.08;0.90;;;;;;;;;;5015453;28;20107;-58
2022/01/03 08:05:37;;;;;;;5.63;1.48;;;;;;;;;;5015274;28;20060;-59
2022/01/03 08:08:08;;;;;;;5.93;1.20;;;;;;;;;;5013585;28;20054;-55
2022/01/03 08:10:36;;;;;;;4.45;1.00;;;;;;;;;;5013520;28;20417;-59
2022/01/03 08:13:02;;;;;;;6.60;2.15;;;;;;;;;;5013565;28;20518;-58
2022/01/03 08:15:29;;;;;;;4.93;1.20;;;;;;;;;;5013103;28;20385;-58
2022/01/03 08:17:56;;;;;;;5.03;1.23;;;;;;;;;;5013426;28;20052;-58
2022/01/03 08:20:25;;;;;;;6.72;1.42;;;;;;;;;;5013170;28;20057;-59
2022/01/03 08:22:52;;;;;;;3.35;1.08;;;;;;;;;;5013238;28;20421;-59
2022/01/03 08:25:19;;;;;;;3.63;1.00;;;;;;;;;;5013213;28;20053;-57
2022/01/03 08:27:46;;;;;;;5.35;1.30;;;;;;;;;;5013004;28;20058;-59
2022/01/03 08:30:13;;;;;;;5.00;1.10;;;;;;;;;;5013439;28;20076;-58
2022/01/03 08:32:40;;;;;;;6.22;1.60;;;;;;;;;;5013263;28;20136;-59
2022/01/03 08:35:08;;;;;;;3.78;0.82;;;;;;;;;;5012849;28;20537;-57
2022/01/03 08:37:36;;;;;;;3.85;1.10;;;;;;;;;;5012821;28;20053;-56
2022/01/03 08:40:06;;;;;;;6.35;1.15;;;;;;;;;;5012672;28;20050;-58
2022/01/03 08:42:33;;;;;;;5.63;1.52;;;;;;;;;;5012907;28;20638;-58
2022/01/03 08:45:01;;;;;;;5.43;1.40;;;;;;;;;;5012645;28;20057;-59
2022/01/03 08:47:28;;;;;;;3.47;1.10;;;;;;;;;;5012837;28;20041;-58
2022/01/03 08:49:55;;;;;;;6.85;1.58;;;;;;;;;;5012763;28;20061;-60
2022/01/03 08:52:21;;;;;;;4.60;1.00;;;;;;;;;;5012733;28;20053;-57
2022/01/03 08:54:50;;;;;;;7.05;1.20;;;;;;;;;;5012746;28;20054;-59
2022/01/03 08:57:18;;;;;;;5.03;1.25;;;;;;;;;;5012664;28;20054;-60
2022/01/03 08:59:45;;;;;;;2.92;1.08;;;;;;;;;;5012793;28;20049;-59
2022/01/03 09:02:12;;;;;;;5.00;1.10;;;;;;;;;;5012399;28;20088;-58
2022/01/03 09:04:40;;;;;;;5.40;1.30;;;;;;;;;;5012400;28;20088;-57
2022/01/03 09:07:07;;;;;;;3.72;0.80;;;;;;;;;;5012489;28;20085;-59
2022/01/03 09:09:34;;;;;;;4.88;1.08;;;;;;;;;;5012999;28;20426;-59
2022/01/03 09:12:03;;;;;;;3.92;1.10;;;;;;;;;;5012179;28;20054;-59
2022/01/03 09:14:30;;;;;;;3.60;1.38;;;;;;;;;;5012735;28;20225;-59
2022/01/03 09:16:57;;;;;;;5.20;1.10;;;;;;;;;;5012165;28;20057;-58
2022/01/03 09:19:24;;;;;;;4.38;1.15;;;;;;;;;;5012510;28;20068;-57
2022/01/03 09:21:58;;;;;;;5.15;1.33;;;;;;;;;;5012574;28;20499;-58
2022/01/03 09:24:30;;;;;;;6.63;1.42;;;;;;;;;;5012144;28;20057;-56
2022/01/03 09:29:45;;;;;;;4.28;1.05;;;;;;;;;;4995170;28;20526;-58
2022/01/03 09:32:12;;;;;;;4.88;1.08;;;;;;;;;;5012166;28;20082;-59
2022/01/03 09:34:39;;;;;;;6.90;1.20;;;;;;;;;;5011556;28;20042;-59
2022/01/03 09:37:06;;;;;;;5.97;0.90;;;;;;;;;;5012124;28;20482;-58
2022/01/03 09:39:33;;;;;;;6.78;1.60;;;;;;;;;;5012094;28;20053;-59
2022/01/03 09:42:05;;;;;;;4.70;1.08;;;;;;;;;;5011736;28;20050;-59
2022/01/03 09:44:33;;;;;;;4.28;1.17;;;;;;;;;;5011938;28;20153;-58
2022/01/03 09:47:04;;;;;;;8.07;2.08;;;;;;;;;;5011914;28;20050;-60
2022/01/03 09:49:33;;;;;;;;;;;;;;;;;;5012591;28;20064;-62
2022/01/03 09:52:01;;;;;;;3.22;1.30;;;;;;;;;;5012207;28;20399;-62
2022/01/03 09:54:29;;;;;;;5.40;1.00;;;;;;;;;;5012027;28;20050;-60
2022/01/03 09:57:00;;;;;;;5.60;1.52;;;;;;;;;;5011714;28;20339;-63
2022/01/03 09:59:28;;;;;;;4.25;0.98;;;;;;;;;;5011728;28;20046;-60
2022/01/03 10:01:56;;;;;;;5.45;1.67;;;;;;;;;;5012176;28;20046;-63
2022/01/03 10:04:25;;;;;;;5.15;1.40;;;;;;;;;;5012087;28;20081;-63
2022/01/03 10:06:52;;;;;;;3.20;1.20;;;;;;;;;;5011769;28;20072;-62
2022/01/03 10:09:19;;;;;;;5.20;1.20;;;;;;;;;;5011342;28;20057;-59
2022/01/03 10:11:47;;;;;;;3.75;1.17;;;;;;;;;;5011430;28;20111;-58
2022/01/03 10:14:15;;;;;;;3.83;0.90;;;;;;;;;;5011492;28;20053;-60
2022/01/03 10:16:43;;;;;;;5.50;1.33;;;;;;;;;;5011309;28;20137;-59
2022/01/03 10:19:10;;;;;;;4.07;0.77;;;;;;;;;;5011159;28;20100;-60
2022/01/03 10:21:40;;;;;;;1.95;0.82;;;;;;;;;;5011383;28;20112;-59
2022/01/03 10:24:08;;;;;;;;;;;;;;;;;;5011259;28;20049;-59
2022/01/03 10:26:37;;;;;;;3.88;1.42;;;;;;;;;;5011105;28;19921;-57
2022/01/03 10:29:15;;;;;;;3.10;1.00;;;;;;;;;;5011314;28;20084;-58
2022/01/03 10:31:44;;;;;;;4.38;1.15;;;;;;;;;;5011123;28;20046;-56
2022/01/03 10:34:12;;;;;;;4.82;1.50;;;;;;;;;;5010831;28;20050;-59
2022/01/03 10:36:42;;;;;;;4.43;1.27;;;;;;;;;;5011003;28;20163;-57
2022/01/03 10:39:17;;;;;;;2.60;0.90;;;;;;;;;;5010888;28;20053;-55
2022/01/03 10:41:45;;;;;;;3.22;1.10;;;;;;;;;;5011060;28;20103;-56
2022/01/03 10:44:28;;;;;;;3.42;1.00;;;;;;;;;;5010977;28;20053;-58
2022/01/03 10:46:55;;;;;;;3.67;0.80;;;;;;;;;;5010693;28;20049;-58
2022/01/03 10:49:26;;;;;;;2.80;1.00;;;;;;;;;;5010884;28;20073;-56
2022/01/03 10:52:12;;;;;;;5.70;1.00;;;;;;;;;;5011005;28;20054;-55
2022/01/03 10:54:38;;;;;;;5.18;0.90;;;;;;;;;;5010905;28;20415;-57
2022/01/03 10:57:06;;;;;;;6.88;1.17;;;;;;;;;;5010640;28;20103;-56
2022/01/03 10:59:34;;;;;;;3.85;0.90;;;;;;;;;;5010349;28;20050;-57
2022/01/03 11:02:05;;;;;;;3.70;1.08;;;;;;;;;;5010528;28;20089;-57
2022/01/03 11:04:37;;;;;;;3.85;0.98;;;;;;;;;;5010579;28;20058;-57
2022/01/03 11:13:11;;;;;;;4.68;1.30;;;;;;;;;;5010556;28;20298;-56
2022/01/03 11:15:41;;;;;;;7.57;1.60;;;;;;;;;;5010091;28;20085;-56
2022/01/03 11:18:12;;;;;;;5.55;1.70;;;;;;;;;;5007812;28;20127;-57
2022/01/03 11:20:40;;;;;;;5.05;1.27;;;;;;;;;;4990815;28;20058;-56
2022/01/03 11:23:09;;;;;;;5.25;1.23;;;;;;;;;;5005720;28;20060;-53
2022/01/03 11:25:36;;;;;;;5.22;1.55;;;;;;;;;;5030022;28;20139;-56
2022/01/03 11:28:05;;;;;;;3.95;1.10;;;;;;;;;;5029941;28;20049;-56
2022/01/03 11:30:33;;;;;;;5.60;1.60;;;;;;;;;;5023598;28;20508;-60
2022/01/03 11:33:01;;;;;;;5.18;1.30;;;;;;;;;;5010066;28;20165;-66
2022/01/03 11:35:29;;;;;;;5.45;1.63;;;;;;;;;;5009826;28;20141;-56
2022/01/03 11:37:59;;;;;;;3.67;0.90;;;;;;;;;;5009644;28;20053;-55
2022/01/03 11:40:28;;;;;;;;;;;;;;;;;;5010463;28;20050;-58
2022/01/03 11:42:55;;;;;;;5.28;1.15;;;;;;;;;;5010096;28;19928;-56
2022/01/03 11:45:23;;;;;;;3.55;1.20;;;;;;;;;;5009659;28;20539;-57
2022/01/03 11:47:50;;;;;;;5.43;1.45;;;;;;;;;;5009875;28;20058;-58
2022/01/03 11:50:18;;;;;;;7.82;1.30;;;;;;;;;;5010160;28;20462;-58
2022/01/03 11:52:46;;;;;;;4.13;1.00;;;;;;;;;;5009893;28;20145;-58
2022/01/03 11:55:15;;;;;;;2.47;1.00;;;;;;;;;;5006182;28;20046;-58
2022/01/03 12:03:39;;;;;;;15.43;10.02;;;;;;;;;;4994119;28;20081;-56
2022/01/03 12:06:07;;;;;;;21.00;12.32;;;;;;;;;;4994001;28;20112;-59
2022/01/03 12:08:36;;;;;;;5.53;1.25;;;;;;;;;;4993933;28;20077;-60
2022/01/03 12:11:16;;;;;;;4.47;1.30;;;;;;;;;;4994324;28;20088;-67
2022/01/03 12:13:49;;;;;;;5.53;1.10;;;;;;;;;;4994600;28;20081;-59
2022/01/03 12:16:17;;;;;;;4.90;1.02;;;;;;;;;;4994717;28;20583;-57
2022/01/03 12:19:00;;;;;;;5.43;0.90;;;;;;;;;;4994601;28;20415;-57
2022/01/03 12:21:50;;;;;;;2.45;0.88;;;;;;;;;;4994413;28;20050;-55
2022/01/03 12:25:03;;;;;;;5.00;1.50;;;;;;;;;;5010152;28;20446;-54
2022/01/03 12:27:39;;;;;;;7.70;2.13;;;;;;;;;;5013806;28;20057;-55
2022/01/03 12:30:30;;;;;;;4.70;1.08;;;;;;;;;;5013548;28;20049;-55
2022/01/03 12:33:15;;;;;;;;;;;;;;;;;;5014041;28;20088;-56
2022/01/03 12:35:44;;;;;;;2.88;0.80;;;;;;;;;;5013308;28;19929;-56
2022/01/03 12:38:14;;;;;;;4.25;0.88;;;;;;;;;;5013362;28;20049;-53
2022/01/03 12:40:55;;;;;;;6.45;1.38;;;;;;;;;;5013515;28;20108;-56
2022/01/03 12:43:44;;;;;;;2.22;1.00;;;;;;;;;;5013112;28;20487;-55
2022/01/03 12:46:24;;;;;;;3.70;1.23;;;;;;;;;;5003663;28;20474;-57
2022/01/03 12:48:56;;;;;;;3.83;1.00;;;;;;;;;;5000374;28;20046;-57
2022/01/03 12:51:34;;;;;;;5.07;0.90;;;;;;;;;;5002212;28;20078;-56
2022/01/03 12:54:01;;;;;;;3.15;0.98;;;;;;;;;;4998325;28;20050;-57
2022/01/03 12:56:32;;;;;;;4.75;1.15;;;;;;;;;;4993180;28;20038;-56
2022/01/03 12:59:10;;;;;;;4.32;1.08;;;;;;;;;;5000812;28;20046;-57
2022/01/03 13:01:38;;;;;;;3.97;0.90;;;;;;;;;;4995430;28;20492;-56
2022/01/03 13:04:23;;;;;;;5.00;1.08;;;;;;;;;;4992941;28;20057;-57
2022/01/03 13:06:50;;;;;;;4.60;1.10;;;;;;;;;;4992635;28;20085;-56
2022/01/03 13:09:18;;;;;;;4.00;0.95;;;;;;;;;;4992112;28;20101;-55
2022/01/03 13:11:47;;;;;;;6.05;1.35;;;;;;;;;;4992973;28;20141;-58
2022/01/03 13:14:18;;;;;;;3.20;0.70;;;;;;;;;;5008366;28;20582;-58
2022/01/03 13:16:49;;;;;;;5.05;1.10;;;;;;;;;;5012210;28;20272;-57
2022/01/03 13:19:18;;;;;;;3.90;1.20;;;;;;;;;;5012296;28;20156;-53
2022/01/03 13:21:47;;;;;;;3.97;1.40;;;;;;;;;;5012439;28;20068;-57
2022/01/03 13:24:17;;;;;;;4.50;1.10;;;;;;;;;;5012375;28;20057;-53
2022/01/03 13:27:01;;;;;;;3.92;1.30;;;;;;;;;;4995802;28;20054;-51
2022/01/03 13:29:29;;;;;;;4.22;0.93;;;;;;;;;;4992078;28;20146;-55
2022/01/03 13:32:02;;;;;;;7.47;2.20;;;;;;;;;;4993476;28;20118;-53
2022/01/03 13:34:34;;;;;;;7.65;1.48;;;;;;;;;;4993621;28;20132;-54
2022/01/03 13:37:04;;;;;;;8.10;1.08;;;;;;;;;;4993174;28;20100;-55
2022/01/03 13:39:38;;;;;;;3.95;1.15;;;;;;;;;;5006501;28;20084;-53
2022/01/03 13:42:17;;;;;;;5.53;1.10;;;;;;;;;;5010918;28;20446;-52
2022/01/03 13:50:25;;;;;;;4.32;1.00;;;;;;;;;;4992994;28;20136;-57
2022/01/03 13:52:52;;;;;;;;;;;;;;;;;;4993552;28;20054;-55
2022/01/03 13:55:21;;;;;;;4.13;1.42;;;;;;;;;;4993405;28;19972;-62
2022/01/03 13:57:50;;;;;;;5.50;1.40;;;;;;;;;;4994239;28;20042;-61
2022/01/03 14:00:19;;;;;;;6.13;1.52;;;;;;;;;;4994586;28;20046;-56
2022/01/03 14:02:49;;;;;;;3.13;0.90;;;;;;;;;;4993739;28;20058;-53
2022/01/03 14:05:18;;;;;;;4.27;1.00;;;;;;;;;;4992300;28;20507;-54
2022/01/03 14:07:57;;;;;;;4.70;1.40;;;;;;;;;;4991993;28;20077;-54
2022/01/03 14:10:40;;;;;;;4.95;1.20;;;;;;;;;;4998766;28;20042;-52
2022/01/03 14:13:08;;;;;;;5.53;1.95;;;;;;;;;;4995809;28;20054;-57
2022/01/03 14:15:35;;;;;;;2.40;1.02;;;;;;;;;;4994443;28;20046;-54
2022/01/03 14:18:04;;;;;;;4.88;1.15;;;;;;;;;;5004762;28;20130;-56
2022/01/03 14:20:31;;;;;;;5.38;1.13;;;;;;;;;;4991675;28;20047;-55
2022/01/03 14:22:58;;;;;;;6.40;1.20;;;;;;;;;;4991819;28;20492;-54
2022/01/03 14:25:34;;;;;;;1.95;0.93;;;;;;;;;;5002855;28;20415;-55
2022/01/03 14:28:03;;;;;;;5.78;1.10;;;;;;;;;;5007542;28;20058;-54
2022/01/03 14:30:34;;;;;;;2.38;0.82;;;;;;;;;;5011255;28;20053;-55
2022/01/03 14:33:05;;;;;;;6.57;1.10;;;;;;;;;;5011194;28;20042;-53
2022/01/03 14:35:36;;;;;;;8.00;1.25;;;;;;;;;;5009579;28;20053;-57
2022/01/03 14:38:09;;;;;;;8.18;1.25;;;;;;;;;;5011572;28;20061;-55
2022/01/03 14:40:45;;;;;;;3.67;1.10;;;;;;;;;;4995559;28;20058;-55
2022/01/03 14:43:19;;;;;;;4.28;1.10;;;;;;;;;;4996015;28;20066;-55
2022/01/03 14:45:47;;;;;;;3.97;1.20;;;;;;;;;;5009100;28;20049;-56
2022/01/03 14:48:18;;;;;;;3.55;1.20;;;;;;;;;;4992569;28;20054;-55
2022/01/03 14:50:45;;;;;;;3.15;1.10;;;;;;;;;;5000774;28;20488;-57
2022/01/03 14:53:13;;;;;;;2.90;1.13;;;;;;;;;;5002449;28;20049;-57
2022/01/03 14:55:42;;;;;;;2.75;1.02;;;;;;;;;;4990924;28;20046;-56
2022/01/03 14:58:10;;;;;;;4.90;1.58;;;;;;;;;;4991574;28;20547;-54
2022/01/03 15:00:38;;;;;;;5.03;1.10;;;;;;;;;;4991443;28;20078;-54
2022/01/03 15:03:06;;;;;;;3.40;0.80;;;;;;;;;;4990961;28;20152;-57
2022/01/03 15:05:34;;;;;;;3.28;0.90;;;;;;;;;;4991125;28;20046;-57
2022/01/03 15:08:02;;;;;;;3.63;0.88;;;;;;;;;;4991195;28;20061;-54
2022/01/03 15:10:30;;;;;;;4.90;1.10;;;;;;;;;;5010186;28;20053;-57
2022/01/03 15:12:57;;;;;;;2.65;0.90;;;;;;;;;;5010822;28;20560;-55
2022/01/03 15:15:25;;;;;;;2.95;1.00;;;;;;;;;;5011226;28;20050;-57
2022/01/03 15:17:53;;;;;;;4.32;1.00;;;;;;;;;;5010270;28;20046;-53
2022/01/03 15:20:22;;;;;;;5.97;1.02;;;;;;;;;;5011023;28;20144;-56
2022/01/03 15:22:50;;;;;;;3.50;1.00;;;;;;;;;;5011246;28;20483;-53